sensor_id;sensor_type;location;lat;lon;timestamp;P1;durP1;ratioP1;P2;durP2;ratioP2
59788;SDS011;47353;51.614;5.530;2022-08-19T00:00:20;29.60;;;24.45;;
59788;SDS011;47353;51.614;5.530;2022-08-19T00:02:46;30.02;;;25.15;;
59788;SDS011;47353;51.614;5.530;2022-08-19T00:05:12;29.45;;;24.77;;
59788;SDS011;47353;51.614;5.530;2022-08-19T00:07:40;28.42;;;23.85;;
59788;SDS011;47353;51.614;5.530;2022-08-19T00:10:08;30.70;;;25.13;;
59788;SDS011;47353;51.614;5.530;2022-08-19T00:12:34;30.63;;;25.45;;
59788;SDS011;47353;51.614;5.530;2022-08-19T00:15:01;42.67;;;31.33;;
59788;SDS011;47353;51.614;5.530;2022-08-19T00:17:26;52.00;;;33.97;;
59788;SDS011;47353;51.614;5.530;2022-08-19T00:19:52;59.33;;;39.85;;
59788;SDS011;47353;51.614;5.530;2022-08-19T00:22:17;46.78;;;33.25;;
59788;SDS011;47353;51.614;5.530;2022-08-19T00:24:45;42.70;;;31.92;;
59788;SDS011;47353;51.614;5.530;2022-08-19T00:27:11;38.42;;;29.58;;
59788;SDS011;47353;51.614;5.530;2022-08-19T00:29:37;39.20;;;29.80;;
59788;SDS011;47353;51.614;5.530;2022-08-19T00:32:03;39.72;;;30.17;;
59788;SDS011;47353;51.614;5.530;2022-08-19T00:34:29;40.38;;;30.13;;
59788;SDS011;47353;51.614;5.530;2022-08-19T00:36:55;33.85;;;27.10;;
59788;SDS011;47353;51.614;5.530;2022-08-19T00:39:21;33.97;;;26.92;;
59788;SDS011;47353;51.614;5.530;2022-08-19T00:41:47;34.47;;;27.90;;
59788;SDS011;47353;51.614;5.530;2022-08-19T00:44:16;33.38;;;26.77;;
59788;SDS011;47353;51.614;5.530;2022-08-19T00:46:49;32.60;;;26.58;;
59788;SDS011;47353;51.614;5.530;2022-08-19T00:49:21;32.85;;;25.95;;
59788;SDS011;47353;51.614;5.530;2022-08-19T00:51:51;31.50;;;24.65;;
59788;SDS011;47353;51.614;5.530;2022-08-19T00:54:20;30.60;;;24.15;;
59788;SDS011;47353;51.614;5.530;2022-08-19T00:56:47;34.15;;;24.83;;
59788;SDS011;47353;51.614;5.530;2022-08-19T00:59:14;32.53;;;23.83;;
59788;SDS011;47353;51.614;5.530;2022-08-19T01:01:41;31.08;;;23.55;;
59788;SDS011;47353;51.614;5.530;2022-08-19T01:04:09;30.48;;;24.48;;
59788;SDS011;47353;51.614;5.530;2022-08-19T01:06:38;29.90;;;23.83;;
59788;SDS011;47353;51.614;5.530;2022-08-19T01:09:06;34.13;;;24.60;;
59788;SDS011;47353;51.614;5.530;2022-08-19T01:11:33;32.08;;;24.33;;
59788;SDS011;47353;51.614;5.530;2022-08-19T01:14:01;30.83;;;23.67;;
59788;SDS011;47353;51.614;5.530;2022-08-19T01:16:28;34.28;;;25.50;;
59788;SDS011;47353;51.614;5.530;2022-08-19T01:18:55;35.22;;;25.15;;
59788;SDS011;47353;51.614;5.530;2022-08-19T01:23:57;39.22;;;27.67;;
59788;SDS011;47353;51.614;5.530;2022-08-19T01:26:24;39.72;;;27.08;;
59788;SDS011;47353;51.614;5.530;2022-08-19T01:28:52;44.03;;;27.98;;
59788;SDS011;47353;51.614;5.530;2022-08-19T01:31:22;41.15;;;29.15;;
59788;SDS011;47353;51.614;5.530;2022-08-19T01:33:50;41.47;;;29.38;;
59788;SDS011;47353;51.614;5.530;2022-08-19T01:36:25;49.15;;;31.33;;
59788;SDS011;47353;51.614;5.530;2022-08-19T01:38:54;44.45;;;29.67;;
59788;SDS011;47353;51.614;5.530;2022-08-19T01:41:19;47.45;;;30.08;;
59788;SDS011;47353;51.614;5.530;2022-08-19T01:43:46;46.33;;;30.85;;
59788;SDS011;47353;51.614;5.530;2022-08-19T01:46:11;46.17;;;29.50;;
59788;SDS011;47353;51.614;5.530;2022-08-19T01:48:39;45.85;;;30.30;;
59788;SDS011;47353;51.614;5.530;2022-08-19T01:51:06;41.85;;;27.80;;
59788;SDS011;47353;51.614;5.530;2022-08-19T01:53:32;45.25;;;28.95;;
59788;SDS011;47353;51.614;5.530;2022-08-19T01:55:58;45.50;;;30.08;;
59788;SDS011;47353;51.614;5.530;2022-08-19T01:58:26;47.13;;;29.42;;
59788;SDS011;47353;51.614;5.530;2022-08-19T02:01:02;45.85;;;29.17;;
59788;SDS011;47353;51.614;5.530;2022-08-19T02:03:29;43.50;;;28.23;;
59788;SDS011;47353;51.614;5.530;2022-08-19T02:05:56;45.05;;;29.95;;
59788;SDS011;47353;51.614;5.530;2022-08-19T02:08:24;43.30;;;29.05;;
59788;SDS011;47353;51.614;5.530;2022-08-19T02:10:51;49.15;;;30.15;;
59788;SDS011;47353;51.614;5.530;2022-08-19T02:13:16;45.78;;;28.70;;
59788;SDS011;47353;51.614;5.530;2022-08-19T02:15:42;46.00;;;29.60;;
59788;SDS011;47353;51.614;5.530;2022-08-19T02:18:08;45.05;;;29.58;;
59788;SDS011;47353;51.614;5.530;2022-08-19T02:20:34;42.83;;;28.80;;
59788;SDS011;47353;51.614;5.530;2022-08-19T02:23:00;41.35;;;28.48;;
59788;SDS011;47353;51.614;5.530;2022-08-19T02:25:26;43.00;;;28.90;;
59788;SDS011;47353;51.614;5.530;2022-08-19T02:27:52;42.35;;;28.65;;
59788;SDS011;47353;51.614;5.530;2022-08-19T02:30:17;44.28;;;28.55;;
59788;SDS011;47353;51.614;5.530;2022-08-19T02:32:44;42.13;;;27.65;;
59788;SDS011;47353;51.614;5.530;2022-08-19T02:35:10;41.05;;;26.88;;
59788;SDS011;47353;51.614;5.530;2022-08-19T02:37:36;41.88;;;29.02;;
59788;SDS011;47353;51.614;5.530;2022-08-19T02:40:19;45.72;;;29.70;;
59788;SDS011;47353;51.614;5.530;2022-08-19T02:42:46;45.20;;;28.75;;
59788;SDS011;47353;51.614;5.530;2022-08-19T02:45:12;50.42;;;31.88;;
59788;SDS011;47353;51.614;5.530;2022-08-19T02:47:39;60.72;;;35.78;;
59788;SDS011;47353;51.614;5.530;2022-08-19T02:50:05;55.55;;;33.53;;
59788;SDS011;47353;51.614;5.530;2022-08-19T02:52:31;59.08;;;33.65;;
59788;SDS011;47353;51.614;5.530;2022-08-19T02:54:58;49.83;;;32.45;;
59788;SDS011;47353;51.614;5.530;2022-08-19T02:57:25;59.97;;;36.35;;
59788;SDS011;47353;51.614;5.530;2022-08-19T02:59:51;57.90;;;34.92;;
59788;SDS011;47353;51.614;5.530;2022-08-19T03:02:16;55.83;;;34.25;;
59788;SDS011;47353;51.614;5.530;2022-08-19T03:04:42;50.38;;;33.00;;
59788;SDS011;47353;51.614;5.530;2022-08-19T03:07:08;52.75;;;33.15;;
59788;SDS011;47353;51.614;5.530;2022-08-19T03:09:35;57.00;;;35.00;;
59788;SDS011;47353;51.614;5.530;2022-08-19T03:12:02;55.63;;;36.03;;
59788;SDS011;47353;51.614;5.530;2022-08-19T03:14:32;58.95;;;36.35;;
59788;SDS011;47353;51.614;5.530;2022-08-19T03:16:59;64.55;;;38.22;;
59788;SDS011;47353;51.614;5.530;2022-08-19T03:19:24;60.30;;;37.33;;
59788;SDS011;47353;51.614;5.530;2022-08-19T03:21:50;53.20;;;33.70;;
59788;SDS011;47353;51.614;5.530;2022-08-19T03:24:17;50.55;;;32.95;;
59788;SDS011;47353;51.614;5.530;2022-08-19T03:26:45;51.28;;;32.92;;
59788;SDS011;47353;51.614;5.530;2022-08-19T03:29:12;54.47;;;33.63;;
59788;SDS011;47353;51.614;5.530;2022-08-19T03:31:39;47.25;;;31.25;;
59788;SDS011;47353;51.614;5.530;2022-08-19T03:34:08;51.55;;;33.00;;
59788;SDS011;47353;51.614;5.530;2022-08-19T03:36:34;53.70;;;34.33;;
59788;SDS011;47353;51.614;5.530;2022-08-19T03:39:00;52.25;;;33.08;;
59788;SDS011;47353;51.614;5.530;2022-08-19T03:41:27;55.90;;;33.83;;
59788;SDS011;47353;51.614;5.530;2022-08-19T03:43:55;49.00;;;30.95;;
59788;SDS011;47353;51.614;5.530;2022-08-19T03:46:25;47.28;;;32.33;;
59788;SDS011;47353;51.614;5.530;2022-08-19T03:48:53;45.38;;;30.30;;
59788;SDS011;47353;51.614;5.530;2022-08-19T03:51:21;40.40;;;29.60;;
59788;SDS011;47353;51.614;5.530;2022-08-19T03:53:50;44.08;;;29.70;;
59788;SDS011;47353;51.614;5.530;2022-08-19T03:56:16;40.97;;;28.63;;
59788;SDS011;47353;51.614;5.530;2022-08-19T03:58:42;50.30;;;30.88;;
59788;SDS011;47353;51.614;5.530;2022-08-19T04:01:10;46.03;;;30.08;;
59788;SDS011;47353;51.614;5.530;2022-08-19T04:03:43;44.03;;;29.95;;
59788;SDS011;47353;51.614;5.530;2022-08-19T04:08:48;59.03;;;34.78;;
59788;SDS011;47353;51.614;5.530;2022-08-19T04:11:16;50.58;;;32.42;;
59788;SDS011;47353;51.614;5.530;2022-08-19T04:13:45;46.72;;;32.42;;
59788;SDS011;47353;51.614;5.530;2022-08-19T04:16:11;46.95;;;31.20;;
59788;SDS011;47353;51.614;5.530;2022-08-19T04:18:38;41.28;;;30.02;;
59788;SDS011;47353;51.614;5.530;2022-08-19T04:21:05;43.67;;;30.48;;
59788;SDS011;47353;51.614;5.530;2022-08-19T04:23:32;40.55;;;29.15;;
59788;SDS011;47353;51.614;5.530;2022-08-19T04:25:58;41.65;;;29.10;;
59788;SDS011;47353;51.614;5.530;2022-08-19T04:28:24;39.72;;;29.15;;
59788;SDS011;47353;51.614;5.530;2022-08-19T04:30:51;48.35;;;29.45;;
59788;SDS011;47353;51.614;5.530;2022-08-19T04:33:20;40.38;;;28.30;;
59788;SDS011;47353;51.614;5.530;2022-08-19T04:35:49;42.17;;;28.98;;
59788;SDS011;47353;51.614;5.530;2022-08-19T04:38:17;40.08;;;28.33;;
59788;SDS011;47353;51.614;5.530;2022-08-19T04:40:48;44.75;;;29.20;;
59788;SDS011;47353;51.614;5.530;2022-08-19T04:43:38;46.58;;;30.13;;
59788;SDS011;47353;51.614;5.530;2022-08-19T04:46:05;42.33;;;29.85;;
59788;SDS011;47353;51.614;5.530;2022-08-19T04:48:35;42.13;;;29.65;;
59788;SDS011;47353;51.614;5.530;2022-08-19T04:51:05;42.38;;;29.58;;
59788;SDS011;47353;51.614;5.530;2022-08-19T04:53:32;40.90;;;28.77;;
59788;SDS011;47353;51.614;5.530;2022-08-19T04:56:03;45.03;;;30.33;;
59788;SDS011;47353;51.614;5.530;2022-08-19T04:58:31;43.15;;;29.20;;
59788;SDS011;47353;51.614;5.530;2022-08-19T05:00:57;44.28;;;28.77;;
59788;SDS011;47353;51.614;5.530;2022-08-19T05:03:25;45.38;;;29.95;;
59788;SDS011;47353;51.614;5.530;2022-08-19T05:05:51;47.83;;;31.02;;
59788;SDS011;47353;51.614;5.530;2022-08-19T05:08:18;48.85;;;31.08;;
59788;SDS011;47353;51.614;5.530;2022-08-19T05:10:47;43.47;;;30.30;;
59788;SDS011;47353;51.614;5.530;2022-08-19T05:13:15;45.28;;;29.27;;
59788;SDS011;47353;51.614;5.530;2022-08-19T05:15:41;44.90;;;30.65;;
59788;SDS011;47353;51.614;5.530;2022-08-19T05:18:08;44.90;;;31.20;;
59788;SDS011;47353;51.614;5.530;2022-08-19T05:20:52;45.67;;;31.40;;
59788;SDS011;47353;51.614;5.530;2022-08-19T05:23:35;47.67;;;30.80;;
59788;SDS011;47353;51.614;5.530;2022-08-19T05:26:01;48.83;;;32.33;;
59788;SDS011;47353;51.614;5.530;2022-08-19T05:28:26;52.13;;;33.35;;
59788;SDS011;47353;51.614;5.530;2022-08-19T05:30:52;53.88;;;35.45;;
59788;SDS011;47353;51.614;5.530;2022-08-19T05:33:20;55.30;;;37.80;;
59788;SDS011;47353;51.614;5.530;2022-08-19T05:35:46;71.43;;;42.53;;
59788;SDS011;47353;51.614;5.530;2022-08-19T05:38:13;70.85;;;43.90;;
59788;SDS011;47353;51.614;5.530;2022-08-19T05:40:38;73.53;;;45.08;;
59788;SDS011;47353;51.614;5.530;2022-08-19T05:43:05;80.70;;;46.15;;
59788;SDS011;47353;51.614;5.530;2022-08-19T05:45:32;63.50;;;36.83;;
59788;SDS011;47353;51.614;5.530;2022-08-19T05:47:58;80.57;;;47.17;;
59788;SDS011;47353;51.614;5.530;2022-08-19T05:50:23;81.18;;;47.15;;
59788;SDS011;47353;51.614;5.530;2022-08-19T05:52:51;83.30;;;48.45;;
59788;SDS011;47353;51.614;5.530;2022-08-19T05:55:16;79.50;;;48.05;;
59788;SDS011;47353;51.614;5.530;2022-08-19T05:57:45;82.68;;;48.35;;
59788;SDS011;47353;51.614;5.530;2022-08-19T06:00:11;82.93;;;47.83;;
59788;SDS011;47353;51.614;5.530;2022-08-19T06:02:37;85.93;;;47.85;;
59788;SDS011;47353;51.614;5.530;2022-08-19T06:05:03;81.32;;;47.35;;
59788;SDS011;47353;51.614;5.530;2022-08-19T06:07:32;80.95;;;46.05;;
59788;SDS011;47353;51.614;5.530;2022-08-19T06:09:57;76.15;;;45.47;;
59788;SDS011;47353;51.614;5.530;2022-08-19T06:12:23;80.82;;;45.65;;
59788;SDS011;47353;51.614;5.530;2022-08-19T06:14:53;80.25;;;48.00;;
59788;SDS011;47353;51.614;5.530;2022-08-19T06:17:19;83.72;;;47.90;;
59788;SDS011;47353;51.614;5.530;2022-08-19T06:19:47;81.13;;;45.42;;
59788;SDS011;47353;51.614;5.530;2022-08-19T06:22:14;80.85;;;47.92;;
59788;SDS011;47353;51.614;5.530;2022-08-19T06:24:41;75.32;;;44.13;;
59788;SDS011;47353;51.614;5.530;2022-08-19T06:27:07;75.18;;;45.40;;
59788;SDS011;47353;51.614;5.530;2022-08-19T06:29:32;69.85;;;43.35;;
59788;SDS011;47353;51.614;5.530;2022-08-19T06:31:59;74.57;;;43.15;;
59788;SDS011;47353;51.614;5.530;2022-08-19T06:34:26;67.63;;;38.92;;
59788;SDS011;47353;51.614;5.530;2022-08-19T06:36:54;72.70;;;42.13;;
59788;SDS011;47353;51.614;5.530;2022-08-19T06:39:24;68.40;;;41.42;;
59788;SDS011;47353;51.614;5.530;2022-08-19T06:41:54;63.92;;;39.55;;
59788;SDS011;47353;51.614;5.530;2022-08-19T06:44:22;61.25;;;38.65;;
59788;SDS011;47353;51.614;5.530;2022-08-19T06:46:50;58.40;;;38.05;;
59788;SDS011;47353;51.614;5.530;2022-08-19T06:49:16;63.33;;;38.65;;
59788;SDS011;47353;51.614;5.530;2022-08-19T06:51:46;56.83;;;36.75;;
59788;SDS011;47353;51.614;5.530;2022-08-19T06:54:13;56.92;;;36.88;;
59788;SDS011;47353;51.614;5.530;2022-08-19T06:56:40;57.72;;;35.63;;
59788;SDS011;47353;51.614;5.530;2022-08-19T06:59:07;55.83;;;36.67;;
59788;SDS011;47353;51.614;5.530;2022-08-19T07:01:39;58.72;;;36.47;;
59788;SDS011;47353;51.614;5.530;2022-08-19T07:04:06;59.55;;;36.58;;
59788;SDS011;47353;51.614;5.530;2022-08-19T07:06:34;57.03;;;36.42;;
59788;SDS011;47353;51.614;5.530;2022-08-19T07:09:00;53.70;;;35.92;;
59788;SDS011;47353;51.614;5.530;2022-08-19T07:11:26;51.78;;;35.50;;
59788;SDS011;47353;51.614;5.530;2022-08-19T07:13:52;55.70;;;35.55;;
59788;SDS011;47353;51.614;5.530;2022-08-19T07:16:18;54.63;;;36.20;;
59788;SDS011;47353;51.614;5.530;2022-08-19T07:18:45;56.10;;;36.53;;
59788;SDS011;47353;51.614;5.530;2022-08-19T07:21:13;54.13;;;35.78;;
59788;SDS011;47353;51.614;5.530;2022-08-19T07:23:41;53.70;;;35.10;;
59788;SDS011;47353;51.614;5.530;2022-08-19T07:26:08;53.75;;;35.33;;
59788;SDS011;47353;51.614;5.530;2022-08-19T07:28:40;52.05;;;34.05;;
59788;SDS011;47353;51.614;5.530;2022-08-19T07:31:06;59.33;;;36.70;;
59788;SDS011;47353;51.614;5.530;2022-08-19T07:33:33;55.72;;;37.60;;
59788;SDS011;47353;51.614;5.530;2022-08-19T07:36:00;65.05;;;41.15;;
59788;SDS011;47353;51.614;5.530;2022-08-19T07:38:26;57.95;;;39.45;;
59788;SDS011;47353;51.614;5.530;2022-08-19T07:40:51;59.55;;;39.85;;
59788;SDS011;47353;51.614;5.530;2022-08-19T07:43:17;56.80;;;37.63;;
59788;SDS011;47353;51.614;5.530;2022-08-19T07:45:50;59.03;;;38.22;;
59788;SDS011;47353;51.614;5.530;2022-08-19T07:48:17;62.85;;;40.50;;
59788;SDS011;47353;51.614;5.530;2022-08-19T07:50:43;58.92;;;39.13;;
59788;SDS011;47353;51.614;5.530;2022-08-19T07:53:09;57.75;;;38.10;;
59788;SDS011;47353;51.614;5.530;2022-08-19T07:55:34;53.60;;;36.80;;
59788;SDS011;47353;51.614;5.530;2022-08-19T07:57:59;55.53;;;36.38;;
59788;SDS011;47353;51.614;5.530;2022-08-19T08:00:25;55.38;;;35.53;;
59788;SDS011;47353;51.614;5.530;2022-08-19T08:02:52;51.15;;;33.65;;
59788;SDS011;47353;51.614;5.530;2022-08-19T08:05:18;47.60;;;32.08;;
59788;SDS011;47353;51.614;5.530;2022-08-19T08:08:02;49.10;;;31.75;;
59788;SDS011;47353;51.614;5.530;2022-08-19T08:10:45;49.72;;;31.67;;
59788;SDS011;47353;51.614;5.530;2022-08-19T08:13:11;48.92;;;30.50;;
59788;SDS011;47353;51.614;5.530;2022-08-19T08:15:37;53.25;;;35.53;;
59788;SDS011;47353;51.614;5.530;2022-08-19T08:18:03;60.97;;;37.25;;
59788;SDS011;47353;51.614;5.530;2022-08-19T08:20:29;49.78;;;33.90;;
59788;SDS011;47353;51.614;5.530;2022-08-19T08:22:55;52.88;;;32.90;;
59788;SDS011;47353;51.614;5.530;2022-08-19T08:28:04;53.90;;;32.85;;
59788;SDS011;47353;51.614;5.530;2022-08-19T08:30:30;56.80;;;34.13;;
59788;SDS011;47353;51.614;5.530;2022-08-19T08:32:57;58.38;;;35.40;;
59788;SDS011;47353;51.614;5.530;2022-08-19T08:35:23;52.33;;;33.55;;
59788;SDS011;47353;51.614;5.530;2022-08-19T08:37:51;51.53;;;33.47;;
59788;SDS011;47353;51.614;5.530;2022-08-19T08:40:23;45.15;;;29.95;;
59788;SDS011;47353;51.614;5.530;2022-08-19T08:43:05;46.92;;;32.83;;
59788;SDS011;47353;51.614;5.530;2022-08-19T08:45:34;49.92;;;33.55;;
59788;SDS011;47353;51.614;5.530;2022-08-19T08:48:13;47.07;;;31.37;;
59788;SDS011;47353;51.614;5.530;2022-08-19T08:50:46;48.40;;;33.50;;
59788;SDS011;47353;51.614;5.530;2022-08-19T08:53:16;50.38;;;34.65;;
59788;SDS011;47353;51.614;5.530;2022-08-19T08:55:42;51.72;;;35.35;;
59788;SDS011;47353;51.614;5.530;2022-08-19T08:58:12;50.67;;;35.63;;
59788;SDS011;47353;51.614;5.530;2022-08-19T09:00:46;47.90;;;32.83;;
59788;SDS011;47353;51.614;5.530;2022-08-19T09:05:55;45.55;;;34.20;;
59788;SDS011;47353;51.614;5.530;2022-08-19T09:11:15;41.90;;;30.20;;
59788;SDS011;47353;51.614;5.530;2022-08-19T09:16:41;43.28;;;30.70;;
59788;SDS011;47353;51.614;5.530;2022-08-19T09:19:07;41.00;;;30.58;;
59788;SDS011;47353;51.614;5.530;2022-08-19T09:21:33;42.45;;;29.90;;
59788;SDS011;47353;51.614;5.530;2022-08-19T09:24:00;37.45;;;28.95;;
59788;SDS011;47353;51.614;5.530;2022-08-19T09:26:26;40.53;;;29.42;;
59788;SDS011;47353;51.614;5.530;2022-08-19T09:28:52;38.95;;;28.63;;
59788;SDS011;47353;51.614;5.530;2022-08-19T09:31:23;41.00;;;29.90;;
59788;SDS011;47353;51.614;5.530;2022-08-19T09:33:50;43.40;;;29.67;;
59788;SDS011;47353;51.614;5.530;2022-08-19T09:36:17;40.45;;;29.95;;
59788;SDS011;47353;51.614;5.530;2022-08-19T09:38:47;43.92;;;32.65;;
59788;SDS011;47353;51.614;5.530;2022-08-19T09:41:17;42.42;;;30.25;;
59788;SDS011;47353;51.614;5.530;2022-08-19T09:43:44;45.58;;;31.48;;
59788;SDS011;47353;51.614;5.530;2022-08-19T09:46:12;48.53;;;33.85;;
59788;SDS011;47353;51.614;5.530;2022-08-19T09:48:41;53.20;;;36.55;;
59788;SDS011;47353;51.614;5.530;2022-08-19T09:53:34;54.72;;;35.58;;
59788;SDS011;47353;51.614;5.530;2022-08-19T09:56:00;50.55;;;34.92;;
59788;SDS011;47353;51.614;5.530;2022-08-19T09:58:26;49.63;;;35.00;;
59788;SDS011;47353;51.614;5.530;2022-08-19T10:00:55;50.40;;;35.85;;
59788;SDS011;47353;51.614;5.530;2022-08-19T10:03:23;47.78;;;33.92;;
59788;SDS011;47353;51.614;5.530;2022-08-19T10:05:49;47.75;;;34.33;;
59788;SDS011;47353;51.614;5.530;2022-08-19T10:08:15;49.00;;;34.70;;
59788;SDS011;47353;51.614;5.530;2022-08-19T10:10:43;49.63;;;33.75;;
59788;SDS011;47353;51.614;5.530;2022-08-19T10:13:09;46.78;;;33.47;;
59788;SDS011;47353;51.614;5.530;2022-08-19T10:15:34;45.83;;;31.73;;
59788;SDS011;47353;51.614;5.530;2022-08-19T10:18:00;48.47;;;33.88;;
59788;SDS011;47353;51.614;5.530;2022-08-19T10:20:26;45.00;;;31.85;;
59788;SDS011;47353;51.614;5.530;2022-08-19T10:22:51;43.08;;;32.63;;
59788;SDS011;47353;51.614;5.530;2022-08-19T10:25:16;51.97;;;35.40;;
59788;SDS011;47353;51.614;5.530;2022-08-19T10:27:42;46.42;;;33.05;;
59788;SDS011;47353;51.614;5.530;2022-08-19T10:30:08;48.10;;;33.63;;
59788;SDS011;47353;51.614;5.530;2022-08-19T10:32:34;43.55;;;29.80;;
59788;SDS011;47353;51.614;5.530;2022-08-19T10:35:00;39.97;;;30.67;;
59788;SDS011;47353;51.614;5.530;2022-08-19T10:37:26;37.50;;;28.98;;
59788;SDS011;47353;51.614;5.530;2022-08-19T10:39:51;38.08;;;28.77;;
59788;SDS011;47353;51.614;5.530;2022-08-19T10:42:17;39.78;;;28.80;;
59788;SDS011;47353;51.614;5.530;2022-08-19T10:44:43;41.95;;;28.70;;
59788;SDS011;47353;51.614;5.530;2022-08-19T10:47:10;42.33;;;30.67;;
59788;SDS011;47353;51.614;5.530;2022-08-19T10:49:36;38.13;;;29.00;;
59788;SDS011;47353;51.614;5.530;2022-08-19T10:52:24;40.38;;;29.33;;
59788;SDS011;47353;51.614;5.530;2022-08-19T10:54:59;41.08;;;28.35;;
59788;SDS011;47353;51.614;5.530;2022-08-19T10:57:52;37.17;;;29.75;;
59788;SDS011;47353;51.614;5.530;2022-08-19T11:00:18;42.88;;;31.52;;
59788;SDS011;47353;51.614;5.530;2022-08-19T11:02:45;42.65;;;30.80;;
59788;SDS011;47353;51.614;5.530;2022-08-19T11:05:11;44.65;;;31.98;;
59788;SDS011;47353;51.614;5.530;2022-08-19T11:07:40;39.95;;;31.73;;
59788;SDS011;47353;51.614;5.530;2022-08-19T11:10:07;41.90;;;31.70;;
59788;SDS011;47353;51.614;5.530;2022-08-19T11:12:36;43.53;;;30.23;;
59788;SDS011;47353;51.614;5.530;2022-08-19T11:15:03;44.38;;;31.38;;
59788;SDS011;47353;51.614;5.530;2022-08-19T11:17:29;41.13;;;30.90;;
59788;SDS011;47353;51.614;5.530;2022-08-19T11:19:56;38.88;;;29.83;;
59788;SDS011;47353;51.614;5.530;2022-08-19T11:22:22;38.05;;;28.98;;
59788;SDS011;47353;51.614;5.530;2022-08-19T11:24:47;40.55;;;29.60;;
59788;SDS011;47353;51.614;5.530;2022-08-19T11:27:12;40.10;;;30.77;;
59788;SDS011;47353;51.614;5.530;2022-08-19T11:29:39;41.72;;;30.60;;
59788;SDS011;47353;51.614;5.530;2022-08-19T11:32:06;37.42;;;28.77;;
59788;SDS011;47353;51.614;5.530;2022-08-19T11:34:34;34.03;;;25.60;;
59788;SDS011;47353;51.614;5.530;2022-08-19T11:37:00;36.15;;;26.45;;
59788;SDS011;47353;51.614;5.530;2022-08-19T11:39:28;36.53;;;27.70;;
59788;SDS011;47353;51.614;5.530;2022-08-19T11:41:55;34.95;;;26.73;;
59788;SDS011;47353;51.614;5.530;2022-08-19T11:44:23;34.22;;;24.70;;
59788;SDS011;47353;51.614;5.530;2022-08-19T11:46:48;32.70;;;24.08;;
59788;SDS011;47353;51.614;5.530;2022-08-19T11:49:15;31.30;;;23.35;;
59788;SDS011;47353;51.614;5.530;2022-08-19T11:51:43;32.95;;;24.48;;
59788;SDS011;47353;51.614;5.530;2022-08-19T11:54:09;27.85;;;22.40;;
59788;SDS011;47353;51.614;5.530;2022-08-19T11:56:36;27.90;;;21.75;;
59788;SDS011;47353;51.614;5.530;2022-08-19T11:59:02;30.42;;;22.90;;
59788;SDS011;47353;51.614;5.530;2022-08-19T12:01:28;28.02;;;21.73;;
59788;SDS011;47353;51.614;5.530;2022-08-19T12:03:54;26.63;;;20.13;;
59788;SDS011;47353;51.614;5.530;2022-08-19T12:06:25;24.65;;;20.98;;
59788;SDS011;47353;51.614;5.530;2022-08-19T12:08:54;24.17;;;19.97;;
59788;SDS011;47353;51.614;5.530;2022-08-19T12:11:20;29.90;;;22.30;;
59788;SDS011;47353;51.614;5.530;2022-08-19T12:13:45;25.48;;;19.75;;
59788;SDS011;47353;51.614;5.530;2022-08-19T12:16:21;23.92;;;21.17;;
59788;SDS011;47353;51.614;5.530;2022-08-19T12:18:53;21.88;;;18.50;;
59788;SDS011;47353;51.614;5.530;2022-08-19T12:21:20;24.92;;;19.08;;
59788;SDS011;47353;51.614;5.530;2022-08-19T12:23:49;24.38;;;18.35;;
59788;SDS011;47353;51.614;5.530;2022-08-19T12:26:15;20.80;;;16.80;;
59788;SDS011;47353;51.614;5.530;2022-08-19T12:28:41;25.05;;;18.42;;
59788;SDS011;47353;51.614;5.530;2022-08-19T12:31:07;21.23;;;18.65;;
59788;SDS011;47353;51.614;5.530;2022-08-19T12:33:33;21.80;;;17.52;;
59788;SDS011;47353;51.614;5.530;2022-08-19T12:36:00;23.20;;;19.77;;
59788;SDS011;47353;51.614;5.530;2022-08-19T12:38:28;23.50;;;18.75;;
59788;SDS011;47353;51.614;5.530;2022-08-19T12:40:54;25.05;;;19.20;;
59788;SDS011;47353;51.614;5.530;2022-08-19T12:43:19;26.17;;;19.67;;
59788;SDS011;47353;51.614;5.530;2022-08-19T12:45:45;25.48;;;18.20;;
59788;SDS011;47353;51.614;5.530;2022-08-19T12:48:11;22.80;;;18.75;;
59788;SDS011;47353;51.614;5.530;2022-08-19T12:50:41;25.95;;;18.65;;
59788;SDS011;47353;51.614;5.530;2022-08-19T12:53:08;27.33;;;19.60;;
59788;SDS011;47353;51.614;5.530;2022-08-19T12:55:33;23.95;;;19.73;;
59788;SDS011;47353;51.614;5.530;2022-08-19T12:57:59;26.67;;;19.02;;
59788;SDS011;47353;51.614;5.530;2022-08-19T13:00:26;25.60;;;19.80;;
59788;SDS011;47353;51.614;5.530;2022-08-19T13:02:52;25.30;;;20.85;;
59788;SDS011;47353;51.614;5.530;2022-08-19T13:05:19;26.08;;;21.58;;
59788;SDS011;47353;51.614;5.530;2022-08-19T13:07:47;25.60;;;20.77;;
59788;SDS011;47353;51.614;5.530;2022-08-19T13:10:14;29.40;;;22.40;;
59788;SDS011;47353;51.614;5.530;2022-08-19T13:12:44;26.73;;;23.10;;
59788;SDS011;47353;51.614;5.530;2022-08-19T13:15:12;29.63;;;21.25;;
59788;SDS011;47353;51.614;5.530;2022-08-19T13:17:40;29.55;;;22.27;;
59788;SDS011;47353;51.614;5.530;2022-08-19T13:20:07;31.38;;;24.98;;
59788;SDS011;47353;51.614;5.530;2022-08-19T13:22:33;29.45;;;22.98;;
59788;SDS011;47353;51.614;5.530;2022-08-19T13:25:00;32.33;;;24.33;;
59788;SDS011;47353;51.614;5.530;2022-08-19T13:27:25;33.05;;;23.40;;
59788;SDS011;47353;51.614;5.530;2022-08-19T13:29:51;30.90;;;23.40;;
59788;SDS011;47353;51.614;5.530;2022-08-19T13:32:35;29.38;;;24.30;;
59788;SDS011;47353;51.614;5.530;2022-08-19T13:35:19;31.63;;;23.83;;
59788;SDS011;47353;51.614;5.530;2022-08-19T13:37:44;30.48;;;24.00;;
59788;SDS011;47353;51.614;5.530;2022-08-19T13:40:14;30.10;;;23.13;;
59788;SDS011;47353;51.614;5.530;2022-08-19T13:42:45;32.38;;;24.08;;
59788;SDS011;47353;51.614;5.530;2022-08-19T13:45:13;39.30;;;25.90;;
59788;SDS011;47353;51.614;5.530;2022-08-19T13:47:51;36.42;;;26.23;;
59788;SDS011;47353;51.614;5.530;2022-08-19T13:50:19;35.22;;;26.13;;
59788;SDS011;47353;51.614;5.530;2022-08-19T13:52:48;37.22;;;26.05;;
59788;SDS011;47353;51.614;5.530;2022-08-19T13:55:14;34.15;;;24.45;;
59788;SDS011;47353;51.614;5.530;2022-08-19T13:57:40;35.75;;;25.02;;
59788;SDS011;47353;51.614;5.530;2022-08-19T14:00:11;35.45;;;24.70;;
59788;SDS011;47353;51.614;5.530;2022-08-19T14:02:39;33.15;;;23.95;;
59788;SDS011;47353;51.614;5.530;2022-08-19T14:05:06;34.75;;;26.40;;
59788;SDS011;47353;51.614;5.530;2022-08-19T14:07:33;33.47;;;25.33;;
59788;SDS011;47353;51.614;5.530;2022-08-19T14:09:58;33.45;;;24.63;;
59788;SDS011;47353;51.614;5.530;2022-08-19T14:12:24;32.78;;;22.98;;
59788;SDS011;47353;51.614;5.530;2022-08-19T14:14:49;28.45;;;21.73;;
59788;SDS011;47353;51.614;5.530;2022-08-19T14:17:15;29.60;;;21.17;;
59788;SDS011;47353;51.614;5.530;2022-08-19T14:19:40;27.60;;;19.55;;
59788;SDS011;47353;51.614;5.530;2022-08-19T14:22:06;29.52;;;21.88;;
59788;SDS011;47353;51.614;5.530;2022-08-19T14:24:32;29.05;;;20.35;;
59788;SDS011;47353;51.614;5.530;2022-08-19T14:26:58;29.73;;;20.25;;
59788;SDS011;47353;51.614;5.530;2022-08-19T14:29:24;28.38;;;20.17;;
59788;SDS011;47353;51.614;5.530;2022-08-19T14:31:50;22.92;;;17.80;;
59788;SDS011;47353;51.614;5.530;2022-08-19T14:34:15;27.05;;;17.02;;
59788;SDS011;47353;51.614;5.530;2022-08-19T14:36:41;21.15;;;15.23;;
59788;SDS011;47353;51.614;5.530;2022-08-19T14:39:07;17.70;;;14.60;;
59788;SDS011;47353;51.614;5.530;2022-08-19T14:41:34;21.02;;;15.88;;